sensor_id;sensor_type;location;lat;lon;timestamp;pressure;altitude;pressure_sealevel;temperature;humidity
71105;BME280;58760;48.716;8.962;2023-09-19T00:00:30;96147.06;;;15.99;100.00
71105;BME280;58760;48.716;8.962;2023-09-19T00:02:57;96148.94;;;15.98;100.00
71105;BME280;58760;48.716;8.962;2023-09-19T00:05:28;96149.91;;;16.04;100.00
71105;BME280;58760;48.716;8.962;2023-09-19T00:07:55;96150.78;;;15.98;100.00
71105;BME280;58760;48.716;8.962;2023-09-19T00:10:27;96148.66;;;16.06;100.00
71105;BME280;58760;48.716;8.962;2023-09-19T00:12:57;96156.22;;;16.16;100.00
71105;BME280;58760;48.716;8.962;2023-09-19T00:15:25;96148.59;;;16.13;100.00
71105;BME280;58760;48.716;8.962;2023-09-19T00:17:55;96144.31;;;16.12;100.00
71105;BME280;58760;48.716;8.962;2023-09-19T00:20:21;96149.72;;;16.05;100.00
71105;BME280;58760;48.716;8.962;2023-09-19T00:22:49;96148.06;;;16.04;100.00
71105;BME280;58760;48.716;8.962;2023-09-19T00:25:19;96151.38;;;16.00;100.00
71105;BME280;58760;48.716;8.962;2023-09-19T00:27:45;96147.06;;;15.99;100.00
71105;BME280;58760;48.716;8.962;2023-09-19T00:30:13;96149.13;;;15.97;100.00
71105;BME280;58760;48.716;8.962;2023-09-19T00:32:45;96151.59;;;15.98;100.00
71105;BME280;58760;48.716;8.962;2023-09-19T00:35:15;96153.28;;;15.93;100.00
71105;BME280;58760;48.716;8.962;2023-09-19T00:37:41;96152.06;;;15.89;100.00
71105;BME280;58760;48.716;8.962;2023-09-19T00:40:10;96153.94;;;15.88;100.00
71105;BME280;58760;48.716;8.962;2023-09-19T00:42:41;96152.00;;;16.02;100.00
71105;BME280;58760;48.716;8.962;2023-09-19T00:45:10;96164.16;;;15.98;100.00
71105;BME280;58760;48.716;8.962;2023-09-19T00:47:38;96162.69;;;16.02;100.00
71105;BME280;58760;48.716;8.962;2023-09-19T00:50:05;96166.41;;;16.01;100.00
71105;BME280;58760;48.716;8.962;2023-09-19T00:52:36;96152.16;;;16.07;100.00
71105;BME280;58760;48.716;8.962;2023-09-19T00:55:05;96161.25;;;16.06;100.00
71105;BME280;58760;48.716;8.962;2023-09-19T00:57:31;96165.19;;;15.97;100.00
71105;BME280;58760;48.716;8.962;2023-09-19T00:59:58;96164.16;;;15.98;100.00
71105;BME280;58760;48.716;8.962;2023-09-19T01:02:23;96162.34;;;15.92;100.00
71105;BME280;58760;48.716;8.962;2023-09-19T01:04:49;96165.03;;;15.92;100.00
71105;BME280;58760;48.716;8.962;2023-09-19T01:07:15;96167.28;;;15.95;100.00
71105;BME280;58760;48.716;8.962;2023-09-19T01:09:41;96166.84;;;15.98;100.00
71105;BME280;58760;48.716;8.962;2023-09-19T01:12:08;96170.91;;;16.07;100.00
71105;BME280;58760;48.716;8.962;2023-09-19T01:14:54;96171.31;;;16.04;100.00
71105;BME280;58760;48.716;8.962;2023-09-19T01:17:27;96168.84;;;16.09;100.00
71105;BME280;58760;48.716;8.962;2023-09-19T01:20:13;96173.41;;;16.02;100.00
71105;BME280;58760;48.716;8.962;2023-09-19T01:26:14;96185.97;;;16.01;99.96
71105;BME280;58760;48.716;8.962;2023-09-19T01:28:53;96188.22;;;16.04;100.00
71105;BME280;58760;48.716;8.962;2023-09-19T01:31:24;96187.00;;;16.00;100.00
71105;BME280;58760;48.716;8.962;2023-09-19T01:33:54;96192.97;;;16.02;99.90
71105;BME280;58760;48.716;8.962;2023-09-19T01:36:25;96195.69;;;15.96;99.47
71105;BME280;58760;48.716;8.962;2023-09-19T01:38:51;96196.50;;;15.96;99.46
71105;BME280;58760;48.716;8.962;2023-09-19T01:41:24;96203.31;;;15.92;99.53
71105;BME280;58760;48.716;8.962;2023-09-19T01:43:51;96202.28;;;15.87;100.00
71105;BME280;58760;48.716;8.962;2023-09-19T01:46:21;96196.50;;;15.96;99.11
71105;BME280;58760;48.716;8.962;2023-09-19T01:51:42;96198.97;;;15.98;97.92
71105;BME280;58760;48.716;8.962;2023-09-19T01:54:12;96217.53;;;15.93;98.27
71105;BME280;58760;48.716;8.962;2023-09-19T01:56:56;96210.50;;;15.98;97.26
71105;BME280;58760;48.716;8.962;2023-09-19T01:59:34;96208.88;;;15.91;97.98
71105;BME280;58760;48.716;8.962;2023-09-19T02:02:00;96206.88;;;15.80;99.02
71105;BME280;58760;48.716;8.962;2023-09-19T02:04:27;96208.72;;;15.79;99.66
71105;BME280;58760;48.716;8.962;2023-09-19T02:06:52;96206.69;;;15.75;99.49
71105;BME280;58760;48.716;8.962;2023-09-19T02:09:18;96222.13;;;15.73;100.00
71105;BME280;58760;48.716;8.962;2023-09-19T02:11:43;96222.13;;;15.73;100.00
71105;BME280;58760;48.716;8.962;2023-09-19T02:14:08;96219.66;;;15.71;99.83
71105;BME280;58760;48.716;8.962;2023-09-19T02:16:34;96210.03;;;15.63;100.00
71105;BME280;58760;48.716;8.962;2023-09-19T02:19:00;96211.28;;;15.54;100.00
71105;BME280;58760;48.716;8.962;2023-09-19T02:21:26;96215.44;;;15.50;100.00
71105;BME280;58760;48.716;8.962;2023-09-19T02:23:55;96218.53;;;15.41;100.00
71105;BME280;58760;48.716;8.962;2023-09-19T02:26:20;96221.25;;;15.28;100.00
71105;BME280;58760;48.716;8.962;2023-09-19T02:28:46;96221.84;;;15.23;100.00
71105;BME280;58760;48.716;8.962;2023-09-19T02:31:11;96223.94;;;15.14;100.00
71105;BME280;58760;48.716;8.962;2023-09-19T02:33:37;96232.16;;;15.13;100.00
71105;BME280;58760;48.716;8.962;2023-09-19T02:36:02;96224.34;;;15.11;100.00
71105;BME280;58760;48.716;8.962;2023-09-19T02:38:29;96232.97;;;15.13;100.00
71105;BME280;58760;48.716;8.962;2023-09-19T02:40:54;96230.13;;;15.08;100.00
71105;BME280;58760;48.716;8.962;2023-09-19T02:43:20;96229.47;;;15.19;100.00
71105;BME280;58760;48.716;8.962;2023-09-19T02:45:46;96227.63;;;15.20;100.00
71105;BME280;58760;48.716;8.962;2023-09-19T02:48:12;96228.63;;;15.26;100.00
71105;BME280;58760;48.716;8.962;2023-09-19T02:50:37;96232.72;;;15.28;100.00
71105;BME280;58760;48.716;8.962;2023-09-19T02:53:04;96238.69;;;15.30;100.00
71105;BME280;58760;48.716;8.962;2023-09-19T02:55:29;96231.09;;;15.34;100.00
71105;BME280;58760;48.716;8.962;2023-09-19T02:57:55;96233.94;;;15.39;100.00
71105;BME280;58760;48.716;8.962;2023-09-19T03:00:21;96247.13;;;15.40;100.00
71105;BME280;58760;48.716;8.962;2023-09-19T03:02:54;96246.28;;;15.40;100.00
71105;BME280;58760;48.716;8.962;2023-09-19T03:05:20;96239.28;;;15.39;100.00
71105;BME280;58760;48.716;8.962;2023-09-19T03:07:47;96236.41;;;15.47;100.00
71105;BME280;58760;48.716;8.962;2023-09-19T03:10:19;96236.19;;;15.55;100.00
71105;BME280;58760;48.716;8.962;2023-09-19T03:12:46;96244.00;;;15.56;100.00
71105;BME280;58760;48.716;8.962;2023-09-19T03:15:12;96238.81;;;15.68;100.00
71105;BME280;58760;48.716;8.962;2023-09-19T03:17:37;96246.78;;;15.81;100.00
71105;BME280;58760;48.716;8.962;2023-09-19T03:20:03;96244.75;;;15.83;100.00
71105;BME280;58760;48.716;8.962;2023-09-19T03:22:34;96243.69;;;15.84;100.00
71105;BME280;58760;48.716;8.962;2023-09-19T03:24:59;96254.63;;;15.83;100.00
71105;BME280;58760;48.716;8.962;2023-09-19T03:27:26;96247.63;;;15.82;100.00
71105;BME280;58760;48.716;8.962;2023-09-19T03:29:52;96247.38;;;15.90;100.00
71105;BME280;58760;48.716;8.962;2023-09-19T03:32:18;96247.81;;;15.80;100.00
71105;BME280;58760;48.716;8.962;2023-09-19T03:34:44;96247.25;;;15.72;100.00
71105;BME280;58760;48.716;8.962;2023-09-19T03:37:09;96249.72;;;15.73;100.00
71105;BME280;58760;48.716;8.962;2023-09-19T03:39:35;96249.31;;;15.69;100.00
71105;BME280;58760;48.716;8.962;2023-09-19T03:42:01;96245.63;;;15.64;100.00
71105;BME280;58760;48.716;8.962;2023-09-19T03:44:29;96243.56;;;15.66;100.00
71105;BME280;58760;48.716;8.962;2023-09-19T03:46:56;96244.41;;;15.66;100.00
71105;BME280;58760;48.716;8.962;2023-09-19T03:49:22;96251.56;;;15.73;100.00
71105;BME280;58760;48.716;8.962;2023-09-19T03:51:47;96245.41;;;15.72;100.00
71105;BME280;58760;48.716;8.962;2023-09-19T03:54:12;96247.06;;;15.66;100.00
71105;BME280;58760;48.716;8.962;2023-09-19T03:56:38;96250.34;;;15.68;100.00
71105;BME280;58760;48.716;8.962;2023-09-19T03:59:03;96247.06;;;15.66;100.00
71105;BME280;58760;48.716;8.962;2023-09-19T04:01:29;96244.78;;;15.70;100.00
71105;BME280;58760;48.716;8.962;2023-09-19T04:03:57;96248.09;;;15.65;100.00
71105;BME280;58760;48.716;8.962;2023-09-19T04:06:22;96240.28;;;15.57;100.00
71105;BME280;58760;48.716;8.962;2023-09-19T04:08:48;96244.41;;;15.60;100.00
71105;BME280;58760;48.716;8.962;2023-09-19T04:11:14;96245.00;;;15.62;100.00
71105;BME280;58760;48.716;8.962;2023-09-19T04:13:39;96240.69;;;15.61;100.00
71105;BME280;58760;48.716;8.962;2023-09-19T04:16:05;96250.16;;;15.63;100.00
71105;BME280;58760;48.716;8.962;2023-09-19T04:18:32;96255.72;;;15.62;100.00
71105;BME280;58760;48.716;8.962;2023-09-19T04:20:58;96251.19;;;15.62;100.00
71105;BME280;58760;48.716;8.962;2023-09-19T04:23:24;96251.38;;;15.67;100.00
71105;BME280;58760;48.716;8.962;2023-09-19T04:25:50;96248.06;;;15.72;100.00
71105;BME280;58760;48.716;8.962;2023-09-19T04:28:16;96246.22;;;15.73;100.00
71105;BME280;58760;48.716;8.962;2023-09-19T04:30:41;96255.25;;;15.78;100.00
71105;BME280;58760;48.716;8.962;2023-09-19T04:33:08;96261.25;;;15.74;100.00
71105;BME280;58760;48.716;8.962;2023-09-19T04:35:33;96257.94;;;15.72;100.00
71105;BME280;58760;48.716;8.962;2023-09-19T04:37:59;96267.41;;;15.67;100.00
71105;BME280;58760;48.716;8.962;2023-09-19T04:40:24;96264.28;;;15.77;100.00
71105;BME280;58760;48.716;8.962;2023-09-19T04:42:55;96267.00;;;15.70;100.00
71105;BME280;58760;48.716;8.962;2023-09-19T04:45:26;96270.28;;;15.73;100.00
71105;BME280;58760;48.716;8.962;2023-09-19T04:47:51;96273.81;;;15.73;100.00
71105;BME280;58760;48.716;8.962;2023-09-19T04:50:18;96279.78;;;15.68;100.00
71105;BME280;58760;48.716;8.962;2023-09-19T04:52:44;96278.13;;;15.67;100.00
71105;BME280;58760;48.716;8.962;2023-09-19T04:55:11;96281.84;;;15.66;100.00
71105;BME280;58760;48.716;8.962;2023-09-19T04:57:41;96290.28;;;15.70;100.00
71105;BME280;58760;48.716;8.962;2023-09-19T05:00:07;96290.91;;;15.65;100.00
71105;BME280;58760;48.716;8.962;2023-09-19T05:02:37;96300.75;;;15.65;100.00
71105;BME280;58760;48.716;8.962;2023-09-19T05:05:03;96303.66;;;15.63;100.00
71105;BME280;58760;48.716;8.962;2023-09-19T05:07:30;96294.19;;;15.61;100.00
71105;BME280;58760;48.716;8.962;2023-09-19T05:09:55;96299.75;;;15.46;100.00
71105;BME280;58760;48.716;8.962;2023-09-19T05:12:20;96301.00;;;15.44;100.00
71105;BME280;58760;48.716;8.962;2023-09-19T05:14:46;96297.72;;;15.35;100.00
71105;BME280;58760;48.716;8.962;2023-09-19T05:17:11;96298.75;;;15.34;100.00
71105;BME280;58760;48.716;8.962;2023-09-19T05:19:36;96296.88;;;15.41;100.00
71105;BME280;58760;48.716;8.962;2023-09-19T05:22:03;96305.31;;;15.38;100.00
71105;BME280;58760;48.716;8.962;2023-09-19T05:24:29;96309.63;;;15.39;100.00
71105;BME280;58760;48.716;8.962;2023-09-19T05:26:56;96306.13;;;15.39;100.00
71105;BME280;58760;48.716;8.962;2023-09-19T05:29:22;96306.97;;;15.39;100.00
71105;BME280;58760;48.716;8.962;2023-09-19T05:31:48;96314.56;;;15.42;100.00
71105;BME280;58760;48.716;8.962;2023-09-19T05:34:14;96312.31;;;15.46;100.00
71105;BME280;58760;48.716;8.962;2023-09-19T05:36:40;96312.31;;;15.52;100.00
71105;BME280;58760;48.716;8.962;2023-09-19T05:39:06;96319.75;;;15.50;100.00
71105;BME280;58760;48.716;8.962;2023-09-19T05:41:35;96327.13;;;15.48;100.00
71105;BME280;58760;48.716;8.962;2023-09-19T05:44:02;96354.50;;;15.63;100.00
71105;BME280;58760;48.716;8.962;2023-09-19T05:46:28;96353.03;;;15.67;100.00
71105;BME280;58760;48.716;8.962;2023-09-19T05:48:55;96361.06;;;15.61;100.00
71105;BME280;58760;48.716;8.962;2023-09-19T05:51:24;96372.19;;;15.51;100.00
71105;BME280;58760;48.716;8.962;2023-09-19T05:53:50;96370.31;;;15.45;100.00
71105;BME280;58760;48.716;8.962;2023-09-19T05:56:15;96378.34;;;15.19;100.00
71105;BME280;58760;48.716;8.962;2023-09-19T05:58:43;96373.81;;;15.13;100.00
71105;BME280;58760;48.716;8.962;2023-09-19T06:01:10;96378.72;;;15.03;100.00
71105;BME280;58760;48.716;8.962;2023-09-19T06:03:35;96387.13;;;14.87;100.00
71105;BME280;58760;48.716;8.962;2023-09-19T06:06:04;96382.19;;;14.77;100.00
71105;BME280;58760;48.716;8.962;2023-09-19T06:08:32;96391.19;;;14.70;100.00
71105;BME280;58760;48.716;8.962;2023-09-19T06:10:59;96392.44;;;14.67;100.00
71105;BME280;58760;48.716;8.962;2023-09-19T06:13:24;96392.00;;;14.63;100.00
71105;BME280;58760;48.716;8.962;2023-09-19T06:15:52;96389.16;;;14.65;100.00
71105;BME280;58760;48.716;8.962;2023-09-19T06:18:17;96393.88;;;14.70;100.00
71105;BME280;58760;48.716;8.962;2023-09-19T06:20:47;96387.91;;;14.68;100.00
71105;BME280;58760;48.716;8.962;2023-09-19T06:23:13;96391.41;;;14.68;100.00
71105;BME280;58760;48.716;8.962;2023-09-19T06:25:38;96400.88;;;14.71;100.00
71105;BME280;58760;48.716;8.962;2023-09-19T06:28:04;96402.31;;;14.73;100.00
71105;BME280;58760;48.716;8.962;2023-09-19T06:30:30;96399.44;;;14.75;100.00
71105;BME280;58760;48.716;8.962;2023-09-19T06:32:58;96403.97;;;14.81;100.00
71105;BME280;58760;48.716;8.962;2023-09-19T06:35:23;96407.91;;;14.91;100.00
71105;BME280;58760;48.716;8.962;2023-09-19T06:37:51;96393.31;;;14.94;100.00
71105;BME280;58760;48.716;8.962;2023-09-19T06:40:16;96398.25;;;14.90;100.00
71105;BME280;58760;48.716;8.962;2023-09-19T06:42:47;96402.16;;;14.94;100.00
71105;BME280;58760;48.716;8.962;2023-09-19T06:45:15;96400.09;;;14.96;100.00
71105;BME280;58760;48.716;8.962;2023-09-19T06:47:53;96404.00;;;14.94;100.00
71105;BME280;58760;48.716;8.962;2023-09-19T06:50:23;96405.03;;;14.93;100.00
71105;BME280;58760;48.716;8.962;2023-09-19T06:52:53;96405.25;;;14.98;100.00
71105;BME280;58760;48.716;8.962;2023-09-19T06:55:21;96410.78;;;14.96;100.00
71105;BME280;58760;48.716;8.962;2023-09-19T06:57:47;96407.72;;;15.06;100.00
71105;BME280;58760;48.716;8.962;2023-09-19T07:00:13;96417.22;;;15.15;100.00
71105;BME280;58760;48.716;8.962;2023-09-19T07:03:00;96412.91;;;15.34;100.00
71105;BME280;58760;48.716;8.962;2023-09-19T07:05:30;96428.94;;;15.40;100.00
71105;BME280;58760;48.716;8.962;2023-09-19T07:07:57;96425.06;;;15.49;100.00
71105;BME280;58760;48.716;8.962;2023-09-19T07:10:26;96427.72;;;15.43;100.00
71105;BME280;58760;48.716;8.962;2023-09-19T07:13:02;96429.38;;;15.44;100.00
71105;BME280;58760;48.716;8.962;2023-09-19T07:15:29;96430.84;;;15.53;100.00
71105;BME280;58760;48.716;8.962;2023-09-19T07:17:56;96428.16;;;15.59;100.00
71105;BME280;58760;48.716;8.962;2023-09-19T07:20:23;96438.03;;;15.52;100.00
71105;BME280;58760;48.716;8.962;2023-09-19T07:22:52;96441.53;;;15.59;100.00
71105;BME280;58760;48.716;8.962;2023-09-19T07:25:17;96447.72;;;15.60;100.00
71105;BME280;58760;48.716;8.962;2023-09-19T07:27:43;96447.06;;;15.64;100.00
71105;BME280;58760;48.716;8.962;2023-09-19T07:30:09;96448.91;;;15.57;100.00
71105;BME280;58760;48.716;8.962;2023-09-19T07:32:35;96440.09;;;15.57;100.00
71105;BME280;58760;48.716;8.962;2023-09-19T07:35:05;96451.41;;;15.65;100.00
71105;BME280;58760;48.716;8.962;2023-09-19T07:37:31;96455.09;;;15.64;100.00
71105;BME280;58760;48.716;8.962;2023-09-19T07:39:59;96452.66;;;15.69;100.00
71105;BME280;58760;48.716;8.962;2023-09-19T07:42:24;96447.91;;;15.65;100.00
71105;BME280;58760;48.716;8.962;2023-09-19T07:44:51;96454.69;;;15.67;100.00
71105;BME280;58760;48.716;8.962;2023-09-19T07:47:16;96456.34;;;15.75;100.00
71105;BME280;58760;48.716;8.962;2023-09-19T07:49:42;96460.66;;;15.83;100.00
71105;BME280;58760;48.716;8.962;2023-09-19T07:52:08;96465.38;;;15.94;100.00
71105;BME280;58760;48.716;8.962;2023-09-19T07:54:35;96458.75;;;16.09;100.00
71105;BME280;58760;48.716;8.962;2023-09-19T07:57:01;96457.94;;;16.22;100.00
71105;BME280;58760;48.716;8.962;2023-09-19T07:59:27;96461.63;;;16.28;100.00
71105;BME280;58760;48.716;8.962;2023-09-19T08:01:53;96459.31;;;16.44;100.00
71105;BME280;58760;48.716;8.962;2023-09-19T08:04:18;96468.38;;;16.43;100.00
71105;BME280;58760;48.716;8.962;2023-09-19T08:06:44;96467.75;;;16.48;99.47
71105;BME280;58760;48.716;8.962;2023-09-19T08:09:10;96467.09;;;16.46;96.19
71105;BME280;58760;48.716;8.962;2023-09-19T08:11:36;96472.69;;;16.44;96.18
71105;BME280;58760;48.716;8.962;2023-09-19T08:14:01;96475.56;;;16.56;98.56
71105;BME280;58760;48.716;8.962;2023-09-19T08:16:27;96477.78;;;16.72;96.85
71105;BME280;58760;48.716;8.962;2023-09-19T08:18:52;96489.13;;;16.74;95.94
71105;BME280;58760;48.716;8.962;2023-09-19T08:21:20;96479.56;;;16.85;94.14
71105;BME280;58760;48.716;8.962;2023-09-19T08:23:46;96492.91;;;16.98;92.32
71105;BME280;58760;48.716;8.962;2023-09-19T08:26:11;96498.03;;;17.06;92.30
71105;BME280;58760;48.716;8.962;2023-09-19T08:28:37;96488.59;;;16.97;89.06
71105;BME280;58760;48.716;8.962;2023-09-19T08:31:06;96492.47;;;17.01;87.09
71105;BME280;58760;48.716;8.962;2023-09-19T08:33:33;96489.38;;;17.04;88.26
71105;BME280;58760;48.716;8.962;2023-09-19T08:35:59;96488.53;;;17.10;87.21
71105;BME280;58760;48.716;8.962;2023-09-19T08:38:25;96490.06;;;16.93;88.26
71105;BME280;58760;48.716;8.962;2023-09-19T08:40:57;96485.56;;;16.87;84.98
71105;BME280;58760;48.716;8.962;2023-09-19T08:43:24;96496.41;;;16.98;86.06
71105;BME280;58760;48.716;8.962;2023-09-19T08:45:50;96500.16;;;16.91;82.62
71105;BME280;58760;48.716;8.962;2023-09-19T08:48:29;96499.44;;;17.15;83.60
71105;BME280;58760;48.716;8.962;2023-09-19T08:51:07;96492.81;;;17.17;83.15
71105;BME280;58760;48.716;8.962;2023-09-19T08:53:42;96493.78;;;17.30;84.88
71105;BME280;58760;48.716;8.962;2023-09-19T08:56:09;96500.22;;;17.53;80.86
71105;BME280;58760;48.716;8.962;2023-09-19T08:58:48;96496.09;;;17.57;81.29
71105;BME280;58760;48.716;8.962;2023-09-19T09:01:15;96496.25;;;17.62;77.49
71105;BME280;58760;48.716;8.962;2023-09-19T09:03:42;96501.47;;;17.57;75.15
71105;BME280;58760;48.716;8.962;2023-09-19T09:06:14;96497.78;;;17.52;74.10
71105;BME280;58760;48.716;8.962;2023-09-19T09:08:40;96505.59;;;17.53;76.75
71105;BME280;58760;48.716;8.962;2023-09-19T09:11:06;96509.72;;;17.49;76.55
71105;BME280;58760;48.716;8.962;2023-09-19T09:13:33;96505.19;;;17.56;76.55
71105;BME280;58760;48.716;8.962;2023-09-19T09:15:59;96512.22;;;17.57;74.15
71105;BME280;58760;48.716;8.962;2023-09-19T09:18:24;96508.44;;;17.65;74.91
71105;BME280;58760;48.716;8.962;2023-09-19T09:20:50;96506.75;;;17.70;75.11
71105;BME280;58760;48.716;8.962;2023-09-19T09:23:15;96511.13;;;17.65;74.69
71105;BME280;58760;48.716;8.962;2023-09-19T09:26:07;96501.97;;;17.72;72.98
71105;BME280;58760;48.716;8.962;2023-09-19T09:28:34;96509.78;;;17.81;72.85
71105;BME280;58760;48.716;8.962;2023-09-19T09:31:04;96504.56;;;17.86;73.66
71105;BME280;58760;48.716;8.962;2023-09-19T09:33:37;96506.22;;;17.87;71.80
71105;BME280;58760;48.716;8.962;2023-09-19T09:36:03;96515.28;;;17.86;71.02
71105;BME280;58760;48.716;8.962;2023-09-19T09:38:43;96507.69;;;17.83;71.26
71105;BME280;58760;48.716;8.962;2023-09-19T09:41:09;96506.34;;;17.92;71.02
71105;BME280;58760;48.716;8.962;2023-09-19T09:43:35;96511.13;;;18.14;70.34
71105;BME280;58760;48.716;8.962;2023-09-19T09:46:14;96521.22;;;18.19;71.04
71105;BME280;58760;48.716;8.962;2023-09-19T09:48:45;96517.19;;;18.28;69.58
71105;BME280;58760;48.716;8.962;2023-09-19T09:51:31;96506.97;;;18.61;69.46
71105;BME280;58760;48.716;8.962;2023-09-19T09:54:12;96508.63;;;18.62;67.33
71105;BME280;58760;48.716;8.962;2023-09-19T09:56:57;96506.88;;;18.86;68.35
71105;BME280;58760;48.716;8.962;2023-09-19T09:59:50;96505.94;;;18.99;67.78
71105;BME280;58760;48.716;8.962;2023-09-19T10:02:18;96514.41;;;19.14;66.91
71105;BME280;58760;48.716;8.962;2023-09-19T10:05:18;96512.75;;;19.13;65.85
71105;BME280;58760;48.716;8.962;2023-09-19T10:07:44;96510.53;;;19.40;64.84
71105;BME280;58760;48.716;8.962;2023-09-19T10:10:30;96507.56;;;19.29;64.13
71105;BME280;58760;48.716;8.962;2023-09-19T10:13:06;96502.28;;;19.23;62.55
71105;BME280;58760;48.716;8.962;2023-09-19T10:15:33;96513.53;;;19.02;63.84
71105;BME280;58760;48.716;8.962;2023-09-19T10:18:04;96498.47;;;19.12;64.61
71105;BME280;58760;48.716;8.962;2023-09-19T10:20:30;96502.28;;;19.23;64.23
71105;BME280;58760;48.716;8.962;2023-09-19T10:22:56;96505.13;;;19.28;65.20
71105;BME280;58760;48.716;8.962;2023-09-19T10:25:27;96503.22;;;19.47;63.48
71105;BME280;58760;48.716;8.962;2023-09-19T10:27:57;96500.00;;;19.38;62.90
71105;BME280;58760;48.716;8.962;2023-09-19T10:30:29;96492.94;;;19.25;62.78
71105;BME280;58760;48.716;8.962;2023-09-19T10:33:03;96504.56;;;19.38;62.93
71105;BME280;58760;48.716;8.962;2023-09-19T10:35:29;96497.38;;;19.50;61.31
71105;BME280;58760;48.716;8.962;2023-09-19T10:37:59;96495.53;;;19.62;60.65
71105;BME280;58760;48.716;8.962;2023-09-19T10:40:27;96493.88;;;19.61;61.63
71105;BME280;58760;48.716;8.962;2023-09-19T10:43:05;96493.56;;;19.57;60.66
71105;BME280;58760;48.716;8.962;2023-09-19T10:45:33;96505.38;;;19.38;61.34
71105;BME280;58760;48.716;8.962;2023-09-19T10:48:02;96503.03;;;19.30;60.46
71105;BME280;58760;48.716;8.962;2023-09-19T10:50:41;96504.66;;;19.61;60.40
71105;BME280;58760;48.716;8.962;2023-09-19T10:53:11;96508.38;;;19.90;59.59
71105;BME280;58760;48.716;8.962;2023-09-19T10:55:37;96509.88;;;19.86;59.21
71105;BME280;58760;48.716;8.962;2023-09-19T10:58:05;96517.72;;;19.75;58.47
71105;BME280;58760;48.716;8.962;2023-09-19T11:00:53;96512.97;;;19.59;59.34
71105;BME280;58760;48.716;8.962;2023-09-19T11:03:21;96506.69;;;19.65;59.97
71105;BME280;58760;48.716;8.962;2023-09-19T11:30:31;96491.88;;;20.21;56.38
71105;BME280;58760;48.716;8.962;2023-09-19T11:33:17;96491.19;;;20.25;55.45
71105;BME280;58760;48.716;8.962;2023-09-19T11:46:17;96478.72;;;20.82;52.86
71105;BME280;58760;48.716;8.962;2023-09-19T11:48:48;96479.16;;;21.31;50.07
71105;BME280;58760;48.716;8.962;2023-09-19T11:51:18;96483.22;;;21.45;50.37
71105;BME280;58760;48.716;8.962;2023-09-19T11:53:46;96473.97;;;22.36;49.60
71105;BME280;58760;48.716;8.962;2023-09-19T11:56:15;96467.59;;;22.09;49.70
71105;BME280;58760;48.716;8.962;2023-09-19T11:58:41;96461.78;;;22.17;50.17
71105;BME280;58760;48.716;8.962;2023-09-19T12:01:07;96454.81;;;22.76;49.08
71105;BME280;58760;48.716;8.962;2023-09-19T12:03:42;96445.50;;;23.64;46.93
71105;BME280;58760;48.716;8.962;2023-09-19T12:06:11;96446.59;;;23.14;47.99
71105;BME280;58760;48.716;8.962;2023-09-19T12:08:40;96437.72;;;23.46;47.51
71105;BME280;58760;48.716;8.962;2023-09-19T12:11:12;96450.22;;;23.73;46.14
71105;BME280;58760;48.716;8.962;2023-09-19T12:13:42;96447.91;;;24.24;44.48
71105;BME280;58760;48.716;8.962;2023-09-19T12:16:17;96439.72;;;24.61;44.12
71105;BME280;58760;48.716;8.962;2023-09-19T12:18:44;96433.13;;;24.46;44.53
71105;BME280;58760;48.716;8.962;2023-09-19T12:21:30;96431.50;;;24.97;43.28
71105;BME280;58760;48.716;8.962;2023-09-19T12:24:04;96437.03;;;24.61;43.76
71105;BME280;58760;48.716;8.962;2023-09-19T12:26:30;96434.75;;;24.89;43.96
71105;BME280;58760;48.716;8.962;2023-09-19T12:29:03;96419.38;;;25.25;42.86
71105;BME280;58760;48.716;8.962;2023-09-19T12:31:30;96414.22;;;25.34;43.57
71105;BME280;58760;48.716;8.962;2023-09-19T12:33:58;96423.19;;;25.39;43.24
71105;BME280;58760;48.716;8.962;2023-09-19T12:36:26;96419.34;;;25.15;43.74
71105;BME280;58760;48.716;8.962;2023-09-19T12:38:55;96419.69;;;25.49;43.03
71105;BME280;58760;48.716;8.962;2023-09-19T12:41:21;96415.09;;;25.55;42.79
71105;BME280;58760;48.716;8.962;2023-09-19T12:43:52;96414.66;;;25.01;43.07
71105;BME280;58760;48.716;8.962;2023-09-19T12:46:20;96415.91;;;25.60;42.51
71105;BME280;58760;48.716;8.962;2023-09-19T12:49:19;96402.34;;;25.95;40.48
71105;BME280;58760;48.716;8.962;2023-09-19T12:51:48;96408.56;;;26.46;39.68
71105;BME280;58760;48.716;8.962;2023-09-19T12:54:14;96409.66;;;26.05;40.32
71105;BME280;58760;48.716;8.962;2023-09-19T12:56:44;96405.03;;;26.31;40.46
71105;BME280;58760;48.716;8.962;2023-09-19T12:59:12;96402.72;;;26.83;39.13
71105;BME280;58760;48.716;8.962;2023-09-19T13:01:39;96399.88;;;27.09;37.92
71105;BME280;58760;48.716;8.962;2023-09-19T13:04:18;96396.16;;;26.89;39.02
71105;BME280;58760;48.716;8.962;2023-09-19T13:06:48;96396.84;;;26.46;39.41
71105;BME280;58760;48.716;8.962;2023-09-19T13:09:15;96387.38;;;27.02;39.01
71105;BME280;58760;48.716;8.962;2023-09-19T13:11:42;96394.72;;;26.02;38.74
71105;BME280;58760;48.716;8.962;2023-09-19T13:17:06;96394.81;;;27.36;38.23
71105;BME280;58760;48.716;8.962;2023-09-19T13:19:46;96390.06;;;27.13;37.17
71105;BME280;58760;48.716;8.962;2023-09-19T13:25:09;96377.78;;;27.15;36.75
71105;BME280;58760;48.716;8.962;2023-09-19T13:27:39;96393.16;;;26.91;37.25
71105;BME280;58760;48.716;8.962;2023-09-19T13:30:05;96385.25;;;26.89;37.27
71105;BME280;58760;48.716;8.962;2023-09-19T13:32:32;96378.84;;;27.19;36.63
71105;BME280;58760;48.716;8.962;2023-09-19T13:34:58;96380.91;;;28.10;36.47
71105;BME280;58760;48.716;8.962;2023-09-19T13:37:23;96386.34;;;27.81;36.46
71105;BME280;58760;48.716;8.962;2023-09-19T13:39:49;96382.94;;;27.99;36.12
71105;BME280;58760;48.716;8.962;2023-09-19T13:42:14;96373.63;;;28.29;35.55
71105;BME280;58760;48.716;8.962;2023-09-19T13:44:41;96370.56;;;28.60;34.78
71105;BME280;58760;48.716;8.962;2023-09-19T13:47:06;96376.22;;;27.53;37.15
71105;BME280;58760;48.716;8.962;2023-09-19T13:49:35;96368.94;;;27.33;37.11